sensor_id;sensor_type;location;lat;lon;timestamp;P1;durP1;ratioP1;P2;durP2;ratioP2
39098;SDS011;24844;52.380;7.018;2022-11-20T00:01:05;39.17;;;22.20;;
39098;SDS011;24844;52.380;7.018;2022-11-20T00:03:39;34.97;;;21.40;;
39098;SDS011;24844;52.380;7.018;2022-11-20T00:06:06;39.30;;;21.58;;
39098;SDS011;24844;52.380;7.018;2022-11-20T00:08:33;38.30;;;21.73;;
39098;SDS011;24844;52.380;7.018;2022-11-20T00:11:02;39.80;;;22.40;;
39098;SDS011;24844;52.380;7.018;2022-11-20T00:13:32;44.03;;;24.00;;
39098;SDS011;24844;52.380;7.018;2022-11-20T00:15:59;50.92;;;26.58;;
39098;SDS011;24844;52.380;7.018;2022-11-20T00:18:26;45.97;;;24.70;;
39098;SDS011;24844;52.380;7.018;2022-11-20T00:20:52;44.65;;;24.92;;
39098;SDS011;24844;52.380;7.018;2022-11-20T00:23:18;42.60;;;24.70;;
39098;SDS011;24844;52.380;7.018;2022-11-20T00:25:43;41.75;;;23.98;;
39098;SDS011;24844;52.380;7.018;2022-11-20T00:28:09;41.03;;;22.52;;
39098;SDS011;24844;52.380;7.018;2022-11-20T00:30:35;46.05;;;25.35;;
39098;SDS011;24844;52.380;7.018;2022-11-20T00:33:00;52.15;;;27.05;;
39098;SDS011;24844;52.380;7.018;2022-11-20T00:35:26;42.95;;;25.30;;
39098;SDS011;24844;52.380;7.018;2022-11-20T00:37:51;44.67;;;24.10;;
39098;SDS011;24844;52.380;7.018;2022-11-20T00:40:17;45.92;;;26.15;;
39098;SDS011;24844;52.380;7.018;2022-11-20T00:42:42;43.00;;;24.75;;
39098;SDS011;24844;52.380;7.018;2022-11-20T00:45:08;49.67;;;27.08;;
39098;SDS011;24844;52.380;7.018;2022-11-20T00:47:33;47.75;;;27.92;;
39098;SDS011;24844;52.380;7.018;2022-11-20T00:49:59;58.58;;;31.75;;
39098;SDS011;24844;52.380;7.018;2022-11-20T00:52:24;45.17;;;26.30;;
39098;SDS011;24844;52.380;7.018;2022-11-20T00:54:50;46.03;;;27.63;;
39098;SDS011;24844;52.380;7.018;2022-11-20T00:57:15;43.92;;;25.45;;
39098;SDS011;24844;52.380;7.018;2022-11-20T00:59:41;41.58;;;25.63;;
39098;SDS011;24844;52.380;7.018;2022-11-20T01:02:06;48.13;;;26.35;;
39098;SDS011;24844;52.380;7.018;2022-11-20T01:04:32;46.50;;;26.90;;
39098;SDS011;24844;52.380;7.018;2022-11-20T01:06:57;55.67;;;32.38;;
39098;SDS011;24844;52.380;7.018;2022-11-20T01:09:23;48.15;;;27.95;;
39098;SDS011;24844;52.380;7.018;2022-11-20T01:11:48;43.50;;;27.50;;
39098;SDS011;24844;52.380;7.018;2022-11-20T01:14:17;46.30;;;27.17;;
39098;SDS011;24844;52.380;7.018;2022-11-20T01:16:48;42.55;;;25.58;;
39098;SDS011;24844;52.380;7.018;2022-11-20T01:19:16;37.50;;;22.92;;
39098;SDS011;24844;52.380;7.018;2022-11-20T01:21:44;40.80;;;24.15;;
39098;SDS011;24844;52.380;7.018;2022-11-20T01:24:13;43.25;;;25.90;;
39098;SDS011;24844;52.380;7.018;2022-11-20T01:26:41;45.85;;;26.27;;
39098;SDS011;24844;52.380;7.018;2022-11-20T01:29:15;56.90;;;32.38;;
39098;SDS011;24844;52.380;7.018;2022-11-20T01:31:43;48.90;;;26.80;;
39098;SDS011;24844;52.380;7.018;2022-11-20T01:34:10;38.60;;;23.48;;
39098;SDS011;24844;52.380;7.018;2022-11-20T01:36:38;44.60;;;25.27;;
39098;SDS011;24844;52.380;7.018;2022-11-20T01:39:07;53.25;;;27.73;;
39098;SDS011;24844;52.380;7.018;2022-11-20T01:41:41;46.95;;;25.58;;
39098;SDS011;24844;52.380;7.018;2022-11-20T01:47:17;43.88;;;24.45;;
39098;SDS011;24844;52.380;7.018;2022-11-20T01:49:48;38.85;;;22.15;;
39098;SDS011;24844;52.380;7.018;2022-11-20T01:52:41;36.53;;;19.13;;
39098;SDS011;24844;52.380;7.018;2022-11-20T01:55:17;32.80;;;18.83;;
39098;SDS011;24844;52.380;7.018;2022-11-20T01:57:46;33.20;;;19.05;;
39098;SDS011;24844;52.380;7.018;2022-11-20T02:00:14;33.67;;;19.50;;
39098;SDS011;24844;52.380;7.018;2022-11-20T02:02:44;32.35;;;18.83;;
39098;SDS011;24844;52.380;7.018;2022-11-20T02:08:31;37.90;;;19.52;;
39098;SDS011;24844;52.380;7.018;2022-11-20T02:10:57;35.78;;;21.65;;
39098;SDS011;24844;52.380;7.018;2022-11-20T02:13:23;36.22;;;20.73;;
39098;SDS011;24844;52.380;7.018;2022-11-20T02:16:08;45.97;;;24.85;;
39098;SDS011;24844;52.380;7.018;2022-11-20T02:18:46;45.65;;;25.95;;
39098;SDS011;24844;52.380;7.018;2022-11-20T02:21:21;43.70;;;24.52;;
39098;SDS011;24844;52.380;7.018;2022-11-20T02:24:07;38.20;;;22.92;;
39098;SDS011;24844;52.380;7.018;2022-11-20T02:26:56;40.80;;;24.40;;
39098;SDS011;24844;52.380;7.018;2022-11-20T02:29:24;40.72;;;23.23;;
39098;SDS011;24844;52.380;7.018;2022-11-20T02:32:20;38.33;;;23.08;;
39098;SDS011;24844;52.380;7.018;2022-11-20T02:34:48;39.47;;;22.85;;
39098;SDS011;24844;52.380;7.018;2022-11-20T02:37:14;38.25;;;21.40;;
39098;SDS011;24844;52.380;7.018;2022-11-20T02:39:41;39.47;;;22.48;;
39098;SDS011;24844;52.380;7.018;2022-11-20T02:42:08;34.45;;;19.35;;
39098;SDS011;24844;52.380;7.018;2022-11-20T02:44:34;40.67;;;24.40;;
39098;SDS011;24844;52.380;7.018;2022-11-20T02:46:59;46.70;;;26.55;;
39098;SDS011;24844;52.380;7.018;2022-11-20T02:49:25;47.75;;;27.83;;
39098;SDS011;24844;52.380;7.018;2022-11-20T02:51:51;48.28;;;25.38;;
39098;SDS011;24844;52.380;7.018;2022-11-20T02:54:17;44.72;;;25.02;;
39098;SDS011;24844;52.380;7.018;2022-11-20T02:56:42;41.60;;;24.00;;
39098;SDS011;24844;52.380;7.018;2022-11-20T02:59:08;43.50;;;24.63;;
39098;SDS011;24844;52.380;7.018;2022-11-20T03:01:34;40.40;;;23.58;;
39098;SDS011;24844;52.380;7.018;2022-11-20T03:04:00;46.97;;;26.30;;
39098;SDS011;24844;52.380;7.018;2022-11-20T03:06:26;46.63;;;24.92;;
39098;SDS011;24844;52.380;7.018;2022-11-20T03:08:52;38.92;;;21.13;;
39098;SDS011;24844;52.380;7.018;2022-11-20T03:11:17;35.67;;;20.70;;
39098;SDS011;24844;52.380;7.018;2022-11-20T03:13:43;47.30;;;26.50;;
39098;SDS011;24844;52.380;7.018;2022-11-20T03:16:10;43.58;;;25.58;;
39098;SDS011;24844;52.380;7.018;2022-11-20T03:18:38;49.47;;;29.33;;
39098;SDS011;24844;52.380;7.018;2022-11-20T03:21:05;40.90;;;22.67;;
39098;SDS011;24844;52.380;7.018;2022-11-20T03:23:31;48.20;;;25.08;;
39098;SDS011;24844;52.380;7.018;2022-11-20T03:26:16;44.03;;;25.40;;
39098;SDS011;24844;52.380;7.018;2022-11-20T03:29:02;43.55;;;26.15;;
39098;SDS011;24844;52.380;7.018;2022-11-20T03:31:30;44.50;;;24.65;;
39098;SDS011;24844;52.380;7.018;2022-11-20T03:34:01;38.22;;;21.60;;
39098;SDS011;24844;52.380;7.018;2022-11-20T03:36:28;37.00;;;22.38;;
39098;SDS011;24844;52.380;7.018;2022-11-20T03:38:54;43.88;;;24.60;;
39098;SDS011;24844;52.380;7.018;2022-11-20T03:41:21;42.78;;;22.45;;
39098;SDS011;24844;52.380;7.018;2022-11-20T03:43:52;42.08;;;23.33;;
39098;SDS011;24844;52.380;7.018;2022-11-20T03:46:20;40.30;;;22.17;;
39098;SDS011;24844;52.380;7.018;2022-11-20T03:48:46;37.22;;;21.63;;
39098;SDS011;24844;52.380;7.018;2022-11-20T03:51:13;38.10;;;20.23;;
39098;SDS011;24844;52.380;7.018;2022-11-20T03:53:41;34.35;;;20.33;;
39098;SDS011;24844;52.380;7.018;2022-11-20T03:56:08;37.90;;;20.38;;
39098;SDS011;24844;52.380;7.018;2022-11-20T03:58:35;38.45;;;21.38;;
39098;SDS011;24844;52.380;7.018;2022-11-20T04:01:21;41.55;;;22.75;;
39098;SDS011;24844;52.380;7.018;2022-11-20T04:03:51;41.47;;;23.67;;
39098;SDS011;24844;52.380;7.018;2022-11-20T04:06:18;40.40;;;21.83;;
39098;SDS011;24844;52.380;7.018;2022-11-20T04:11:13;34.60;;;20.10;;
39098;SDS011;24844;52.380;7.018;2022-11-20T04:13:40;33.40;;;19.45;;
39098;SDS011;24844;52.380;7.018;2022-11-20T04:16:08;36.55;;;21.00;;
39098;SDS011;24844;52.380;7.018;2022-11-20T04:18:34;32.28;;;18.90;;
39098;SDS011;24844;52.380;7.018;2022-11-20T04:21:01;41.08;;;20.95;;
39098;SDS011;24844;52.380;7.018;2022-11-20T04:23:27;36.47;;;21.92;;
39098;SDS011;24844;52.380;7.018;2022-11-20T04:25:53;41.78;;;22.67;;
39098;SDS011;24844;52.380;7.018;2022-11-20T04:28:18;39.92;;;22.83;;
39098;SDS011;24844;52.380;7.018;2022-11-20T04:30:44;39.45;;;21.15;;
39098;SDS011;24844;52.380;7.018;2022-11-20T04:33:10;36.60;;;20.38;;
39098;SDS011;24844;52.380;7.018;2022-11-20T04:35:36;34.22;;;20.63;;
39098;SDS011;24844;52.380;7.018;2022-11-20T04:38:02;33.85;;;19.00;;
39098;SDS011;24844;52.380;7.018;2022-11-20T04:40:28;32.88;;;18.60;;
39098;SDS011;24844;52.380;7.018;2022-11-20T04:42:54;40.25;;;21.73;;
39098;SDS011;24844;52.380;7.018;2022-11-20T04:45:20;31.67;;;18.25;;
39098;SDS011;24844;52.380;7.018;2022-11-20T04:47:47;29.58;;;17.17;;
39098;SDS011;24844;52.380;7.018;2022-11-20T04:50:12;30.25;;;17.33;;
39098;SDS011;24844;52.380;7.018;2022-11-20T04:52:38;35.60;;;19.65;;
39098;SDS011;24844;52.380;7.018;2022-11-20T04:55:03;29.20;;;17.88;;
39098;SDS011;24844;52.380;7.018;2022-11-20T04:57:29;29.75;;;16.90;;
39098;SDS011;24844;52.380;7.018;2022-11-20T04:59:55;35.47;;;19.95;;
39098;SDS011;24844;52.380;7.018;2022-11-20T05:02:20;36.67;;;21.83;;
39098;SDS011;24844;52.380;7.018;2022-11-20T05:04:46;39.40;;;21.75;;
39098;SDS011;24844;52.380;7.018;2022-11-20T05:07:12;35.45;;;20.92;;
39098;SDS011;24844;52.380;7.018;2022-11-20T05:09:38;32.22;;;19.25;;
39098;SDS011;24844;52.380;7.018;2022-11-20T05:12:03;36.95;;;21.45;;
39098;SDS011;24844;52.380;7.018;2022-11-20T05:14:29;32.30;;;19.63;;
39098;SDS011;24844;52.380;7.018;2022-11-20T05:16:55;29.55;;;16.98;;
39098;SDS011;24844;52.380;7.018;2022-11-20T05:19:20;38.22;;;22.30;;
39098;SDS011;24844;52.380;7.018;2022-11-20T05:21:46;49.28;;;26.00;;
39098;SDS011;24844;52.380;7.018;2022-11-20T05:24:11;40.55;;;23.15;;
39098;SDS011;24844;52.380;7.018;2022-11-20T05:26:37;42.05;;;24.83;;
39098;SDS011;24844;52.380;7.018;2022-11-20T05:29:03;41.22;;;22.77;;
39098;SDS011;24844;52.380;7.018;2022-11-20T05:31:29;41.53;;;22.80;;
39098;SDS011;24844;52.380;7.018;2022-11-20T05:33:55;40.90;;;21.63;;
39098;SDS011;24844;52.380;7.018;2022-11-20T05:36:21;36.40;;;20.85;;
39098;SDS011;24844;52.380;7.018;2022-11-20T05:38:47;36.60;;;20.75;;
39098;SDS011;24844;52.380;7.018;2022-11-20T05:41:14;35.65;;;20.58;;
39098;SDS011;24844;52.380;7.018;2022-11-20T05:43:42;34.88;;;19.10;;
39098;SDS011;24844;52.380;7.018;2022-11-20T05:46:09;32.67;;;18.45;;
39098;SDS011;24844;52.380;7.018;2022-11-20T05:48:36;29.38;;;17.60;;
39098;SDS011;24844;52.380;7.018;2022-11-20T05:51:03;28.27;;;17.73;;
39098;SDS011;24844;52.380;7.018;2022-11-20T05:53:30;33.30;;;18.92;;
39098;SDS011;24844;52.380;7.018;2022-11-20T05:56:00;27.23;;;16.35;;
39098;SDS011;24844;52.380;7.018;2022-11-20T05:58:27;30.27;;;16.35;;
39098;SDS011;24844;52.380;7.018;2022-11-20T06:00:54;28.70;;;16.58;;
39098;SDS011;24844;52.380;7.018;2022-11-20T06:03:27;26.02;;;14.68;;
39098;SDS011;24844;52.380;7.018;2022-11-20T06:05:53;27.02;;;16.10;;
39098;SDS011;24844;52.380;7.018;2022-11-20T06:08:18;29.70;;;15.65;;
39098;SDS011;24844;52.380;7.018;2022-11-20T06:10:44;27.42;;;15.52;;
39098;SDS011;24844;52.380;7.018;2022-11-20T06:13:09;26.10;;;14.98;;
39098;SDS011;24844;52.380;7.018;2022-11-20T06:15:35;28.77;;;15.82;;
39098;SDS011;24844;52.380;7.018;2022-11-20T06:18:00;31.33;;;16.80;;
39098;SDS011;24844;52.380;7.018;2022-11-20T06:20:26;55.75;;;15.63;;
39098;SDS011;24844;52.380;7.018;2022-11-20T06:22:51;30.77;;;16.58;;
39098;SDS011;24844;52.380;7.018;2022-11-20T06:25:17;31.27;;;16.83;;
39098;SDS011;24844;52.380;7.018;2022-11-20T06:27:42;27.88;;;16.52;;
39098;SDS011;24844;52.380;7.018;2022-11-20T06:30:08;28.13;;;16.13;;
39098;SDS011;24844;52.380;7.018;2022-11-20T06:32:34;36.42;;;20.13;;
39098;SDS011;24844;52.380;7.018;2022-11-20T06:35:00;40.03;;;22.70;;
39098;SDS011;24844;52.380;7.018;2022-11-20T06:37:25;41.55;;;22.38;;
39098;SDS011;24844;52.380;7.018;2022-11-20T06:39:51;36.95;;;19.52;;
39098;SDS011;24844;52.380;7.018;2022-11-20T06:42:16;139.27;;;23.52;;
39098;SDS011;24844;52.380;7.018;2022-11-20T06:44:42;29.00;;;17.55;;
39098;SDS011;24844;52.380;7.018;2022-11-20T06:47:07;33.50;;;19.35;;
39098;SDS011;24844;52.380;7.018;2022-11-20T06:49:33;35.67;;;19.17;;
39098;SDS011;24844;52.380;7.018;2022-11-20T06:51:59;343.90;;;34.13;;
39098;SDS011;24844;52.380;7.018;2022-11-20T06:54:24;33.28;;;19.92;;
39098;SDS011;24844;52.380;7.018;2022-11-20T06:56:50;31.67;;;18.73;;
39098;SDS011;24844;52.380;7.018;2022-11-20T06:59:16;33.47;;;20.48;;
39098;SDS011;24844;52.380;7.018;2022-11-20T07:01:41;44.55;;;24.50;;
39098;SDS011;24844;52.380;7.018;2022-11-20T07:04:07;37.83;;;21.17;;
39098;SDS011;24844;52.380;7.018;2022-11-20T07:06:32;39.22;;;20.83;;
39098;SDS011;24844;52.380;7.018;2022-11-20T07:08:58;41.10;;;21.70;;
39098;SDS011;24844;52.380;7.018;2022-11-20T07:11:23;38.70;;;21.30;;
39098;SDS011;24844;52.380;7.018;2022-11-20T07:13:49;33.58;;;19.88;;
39098;SDS011;24844;52.380;7.018;2022-11-20T07:16:14;43.10;;;24.67;;
39098;SDS011;24844;52.380;7.018;2022-11-20T07:18:40;42.10;;;23.45;;
39098;SDS011;24844;52.380;7.018;2022-11-20T07:21:07;43.80;;;23.88;;
39098;SDS011;24844;52.380;7.018;2022-11-20T07:23:34;40.40;;;22.33;;
39098;SDS011;24844;52.380;7.018;2022-11-20T07:26:04;41.53;;;22.85;;
39098;SDS011;24844;52.380;7.018;2022-11-20T07:28:31;37.40;;;22.13;;
39098;SDS011;24844;52.380;7.018;2022-11-20T07:30:57;38.38;;;22.08;;
39098;SDS011;24844;52.380;7.018;2022-11-20T07:33:23;38.00;;;21.80;;
39098;SDS011;24844;52.380;7.018;2022-11-20T07:35:48;29.42;;;17.38;;
39098;SDS011;24844;52.380;7.018;2022-11-20T07:38:14;113.07;;;23.85;;
39098;SDS011;24844;52.380;7.018;2022-11-20T07:40:39;37.05;;;22.42;;
39098;SDS011;24844;52.380;7.018;2022-11-20T07:43:05;39.22;;;21.45;;
39098;SDS011;24844;52.380;7.018;2022-11-20T07:45:30;39.83;;;22.35;;
39098;SDS011;24844;52.380;7.018;2022-11-20T07:47:56;40.17;;;23.10;;
39098;SDS011;24844;52.380;7.018;2022-11-20T07:50:22;36.95;;;21.75;;
39098;SDS011;24844;52.380;7.018;2022-11-20T07:52:47;38.63;;;20.92;;
39098;SDS011;24844;52.380;7.018;2022-11-20T07:55:13;37.80;;;22.80;;
39098;SDS011;24844;52.380;7.018;2022-11-20T07:57:39;38.92;;;21.67;;
39098;SDS011;24844;52.380;7.018;2022-11-20T08:00:05;40.00;;;22.08;;
39098;SDS011;24844;52.380;7.018;2022-11-20T08:02:34;39.15;;;22.23;;
39098;SDS011;24844;52.380;7.018;2022-11-20T08:05:01;32.63;;;19.13;;
39098;SDS011;24844;52.380;7.018;2022-11-20T08:07:27;39.50;;;22.35;;
39098;SDS011;24844;52.380;7.018;2022-11-20T08:09:52;38.88;;;22.38;;
39098;SDS011;24844;52.380;7.018;2022-11-20T08:12:19;38.42;;;22.98;;
39098;SDS011;24844;52.380;7.018;2022-11-20T08:15:04;39.15;;;23.88;;
39098;SDS011;24844;52.380;7.018;2022-11-20T08:17:30;31.92;;;21.38;;
39098;SDS011;24844;52.380;7.018;2022-11-20T08:19:56;33.70;;;21.48;;
39098;SDS011;24844;52.380;7.018;2022-11-20T08:22:22;32.80;;;20.70;;
39098;SDS011;24844;52.380;7.018;2022-11-20T08:24:47;30.73;;;21.42;;
39098;SDS011;24844;52.380;7.018;2022-11-20T08:27:13;33.08;;;21.60;;
39098;SDS011;24844;52.380;7.018;2022-11-20T08:29:38;26.73;;;18.65;;
39098;SDS011;24844;52.380;7.018;2022-11-20T08:32:04;30.85;;;21.98;;
39098;SDS011;24844;52.380;7.018;2022-11-20T08:34:30;27.25;;;19.13;;
39098;SDS011;24844;52.380;7.018;2022-11-20T08:36:55;29.92;;;19.27;;
39098;SDS011;24844;52.380;7.018;2022-11-20T08:39:21;31.38;;;21.13;;
39098;SDS011;24844;52.380;7.018;2022-11-20T08:41:46;46.58;;;26.60;;
39098;SDS011;24844;52.380;7.018;2022-11-20T08:44:12;29.73;;;22.35;;
39098;SDS011;24844;52.380;7.018;2022-11-20T08:46:38;28.92;;;20.33;;
39098;SDS011;24844;52.380;7.018;2022-11-20T08:49:09;31.05;;;23.85;;
39098;SDS011;24844;52.380;7.018;2022-11-20T08:51:36;30.38;;;21.88;;
39098;SDS011;24844;52.380;7.018;2022-11-20T08:54:03;23.20;;;18.38;;
39098;SDS011;24844;52.380;7.018;2022-11-20T08:56:29;25.25;;;19.95;;
39098;SDS011;24844;52.380;7.018;2022-11-20T08:58:55;26.30;;;20.42;;
39098;SDS011;24844;52.380;7.018;2022-11-20T09:01:21;23.70;;;17.90;;
39098;SDS011;24844;52.380;7.018;2022-11-20T09:03:48;21.05;;;17.00;;
39098;SDS011;24844;52.380;7.018;2022-11-20T09:06:14;19.63;;;15.77;;
39098;SDS011;24844;52.380;7.018;2022-11-20T09:08:40;24.38;;;18.90;;
39098;SDS011;24844;52.380;7.018;2022-11-20T09:11:06;23.27;;;18.23;;
39098;SDS011;24844;52.380;7.018;2022-11-20T09:13:32;20.17;;;14.27;;
39098;SDS011;24844;52.380;7.018;2022-11-20T09:16:01;21.98;;;16.35;;
39098;SDS011;24844;52.380;7.018;2022-11-20T09:18:28;18.50;;;14.20;;
39098;SDS011;24844;52.380;7.018;2022-11-20T09:20:59;22.42;;;15.52;;
39098;SDS011;24844;52.380;7.018;2022-11-20T09:23:26;20.05;;;15.50;;
39098;SDS011;24844;52.380;7.018;2022-11-20T09:25:52;21.70;;;16.40;;
39098;SDS011;24844;52.380;7.018;2022-11-20T09:28:20;20.20;;;15.33;;
39098;SDS011;24844;52.380;7.018;2022-11-20T09:30:46;21.55;;;15.43;;
39098;SDS011;24844;52.380;7.018;2022-11-20T09:33:11;20.73;;;16.17;;
39098;SDS011;24844;52.380;7.018;2022-11-20T09:35:37;20.58;;;15.57;;
39098;SDS011;24844;52.380;7.018;2022-11-20T09:38:08;21.30;;;16.52;;
39098;SDS011;24844;52.380;7.018;2022-11-20T09:40:36;23.38;;;18.08;;
39098;SDS011;24844;52.380;7.018;2022-11-20T09:56:24;28.55;;;20.48;;
39098;SDS011;24844;52.380;7.018;2022-11-20T09:58:51;27.48;;;19.40;;
39098;SDS011;24844;52.380;7.018;2022-11-20T10:01:20;25.13;;;18.33;;
39098;SDS011;24844;52.380;7.018;2022-11-20T10:03:52;24.50;;;18.57;;
39098;SDS011;24844;52.380;7.018;2022-11-20T10:06:42;23.48;;;17.42;;
39098;SDS011;24844;52.380;7.018;2022-11-20T10:09:22;26.75;;;18.48;;
39098;SDS011;24844;52.380;7.018;2022-11-20T10:20:24;24.63;;;17.73;;
39098;SDS011;24844;52.380;7.018;2022-11-20T10:23:03;27.30;;;19.73;;
39098;SDS011;24844;52.380;7.018;2022-11-20T10:28:27;25.30;;;17.92;;
39098;SDS011;24844;52.380;7.018;2022-11-20T10:31:12;24.75;;;17.75;;
39098;SDS011;24844;52.380;7.018;2022-11-20T10:33:52;28.40;;;19.38;;
39098;SDS011;24844;52.380;7.018;2022-11-20T10:36:23;27.95;;;19.95;;
39098;SDS011;24844;52.380;7.018;2022-11-20T10:39:01;27.30;;;17.00;;
39098;SDS011;24844;52.380;7.018;2022-11-20T10:41:33;25.40;;;19.02;;
39098;SDS011;24844;52.380;7.018;2022-11-20T10:44:09;25.63;;;17.48;;
39098;SDS011;24844;52.380;7.018;2022-11-20T10:46:40;22.52;;;17.95;;
39098;SDS011;24844;52.380;7.018;2022-11-20T10:49:16;23.92;;;18.02;;
39098;SDS011;24844;52.380;7.018;2022-11-20T10:57:10;24.38;;;17.77;;
39098;SDS011;24844;52.380;7.018;2022-11-20T11:02:23;22.30;;;16.08;;
39098;SDS011;24844;52.380;7.018;2022-11-20T11:04:58;22.58;;;17.08;;
39098;SDS011;24844;52.380;7.018;2022-11-20T11:07:36;18.40;;;14.65;;
39098;SDS011;24844;52.380;7.018;2022-11-20T11:10:12;19.58;;;14.68;;
39098;SDS011;24844;52.380;7.018;2022-11-20T11:12:42;18.90;;;14.27;;
39098;SDS011;24844;52.380;7.018;2022-11-20T11:15:12;17.15;;;12.93;;
39098;SDS011;24844;52.380;7.018;2022-11-20T11:17:52;15.60;;;11.80;;
39098;SDS011;24844;52.380;7.018;2022-11-20T11:20:19;18.23;;;12.40;;
39098;SDS011;24844;52.380;7.018;2022-11-20T11:22:50;17.38;;;12.02;;
39098;SDS011;24844;52.380;7.018;2022-11-20T11:25:34;15.85;;;12.25;;
39098;SDS011;24844;52.380;7.018;2022-11-20T11:28:02;16.83;;;12.20;;
39098;SDS011;24844;52.380;7.018;2022-11-20T11:30:30;16.00;;;11.15;;
39098;SDS011;24844;52.380;7.018;2022-11-20T11:33:09;16.33;;;11.27;;
39098;SDS011;24844;52.380;7.018;2022-11-20T11:35:44;14.00;;;10.18;;
39098;SDS011;24844;52.380;7.018;2022-11-20T11:38:12;15.65;;;10.85;;
39098;SDS011;24844;52.380;7.018;2022-11-20T11:40:44;12.48;;;8.95;;
39098;SDS011;24844;52.380;7.018;2022-11-20T11:43:19;13.57;;;10.10;;
39098;SDS011;24844;52.380;7.018;2022-11-20T11:46:28;12.23;;;9.25;;
39098;SDS011;24844;52.380;7.018;2022-11-20T11:49:01;12.57;;;8.88;;
39098;SDS011;24844;52.380;7.018;2022-11-20T11:51:41;9.68;;;6.32;;
39098;SDS011;24844;52.380;7.018;2022-11-20T11:54:26;11.35;;;8.13;;
39098;SDS011;24844;52.380;7.018;2022-11-20T11:56:53;11.95;;;8.82;;
39098;SDS011;24844;52.380;7.018;2022-11-20T12:00:03;12.48;;;9.13;;
39098;SDS011;24844;52.380;7.018;2022-11-20T12:02:27;12.43;;;8.70;;
39098;SDS011;24844;52.380;7.018;2022-11-20T12:07:46;13.80;;;8.63;;
39098;SDS011;24844;52.380;7.018;2022-11-20T12:16:07;12.50;;;9.18;;
39098;SDS011;24844;52.380;7.018;2022-11-20T12:18:38;12.35;;;9.07;;
39098;SDS011;24844;52.380;7.018;2022-11-20T12:21:22;12.52;;;8.98;;
39098;SDS011;24844;52.380;7.018;2022-11-20T12:30:07;12.63;;;9.27;;
39098;SDS011;24844;52.380;7.018;2022-11-20T12:36:04;12.70;;;8.98;;
39098;SDS011;24844;52.380;7.018;2022-11-20T12:41:32;13.10;;;10.32;;
39098;SDS011;24844;52.380;7.018;2022-11-20T12:47:20;14.85;;;10.52;;
39098;SDS011;24844;52.380;7.018;2022-11-20T12:55:56;16.75;;;10.82;;
39098;SDS011;24844;52.380;7.018;2022-11-20T13:01:37;14.82;;;10.98;;
39098;SDS011;24844;52.380;7.018;2022-11-20T13:04:22;15.95;;;11.88;;
39098;SDS011;24844;52.380;7.018;2022-11-20T13:07:14;15.75;;;11.43;;
39098;SDS011;24844;52.380;7.018;2022-11-20T13:09:45;16.70;;;12.77;;
39098;SDS011;24844;52.380;7.018;2022-11-20T13:12:24;22.48;;;13.45;;
39098;SDS011;24844;52.380;7.018;2022-11-20T13:15:02;17.17;;;11.23;;
39098;SDS011;24844;52.380;7.018;2022-11-20T13:17:34;15.05;;;11.55;;
39098;SDS011;24844;52.380;7.018;2022-11-20T13:20:11;17.05;;;12.65;;
39098;SDS011;24844;52.380;7.018;2022-11-20T13:22:43;18.35;;;12.13;;
39098;SDS011;24844;52.380;7.018;2022-11-20T13:25:10;15.38;;;11.73;;
39098;SDS011;24844;52.380;7.018;2022-11-20T13:27:56;17.73;;;12.13;;
39098;SDS011;24844;52.380;7.018;2022-11-20T13:30:23;19.37;;;12.40;;
39098;SDS011;24844;52.380;7.018;2022-11-20T13:32:51;14.95;;;11.73;;
39098;SDS011;24844;52.380;7.018;2022-11-20T13:35:24;16.58;;;11.88;;
39098;SDS011;24844;52.380;7.018;2022-11-20T13:38:01;19.42;;;12.85;;
39098;SDS011;24844;52.380;7.018;2022-11-20T13:40:36;19.10;;;12.70;;
39098;SDS011;24844;52.380;7.018;2022-11-20T13:45:54;17.80;;;12.40;;
39098;SDS011;24844;52.380;7.018;2022-11-20T13:48:22;16.52;;;11.85;;
39098;SDS011;24844;52.380;7.018;2022-11-20T13:51:11;18.45;;;12.55;;
39098;SDS011;24844;52.380;7.018;2022-11-20T13:59:31;17.77;;;12.85;;
39098;SDS011;24844;52.380;7.018;2022-11-20T14:02:11;18.90;;;12.23;;
39098;SDS011;24844;52.380;7.018;2022-11-20T14:04:42;18.42;;;12.68;;
39098;SDS011;24844;52.380;7.018;2022-11-20T14:07:10;17.48;;;11.88;;
39098;SDS011;24844;52.380;7.018;2022-11-20T14:09:37;19.05;;;13.60;;
39098;SDS011;24844;52.380;7.018;2022-11-20T14:12:03;20.02;;;14.35;;
39098;SDS011;24844;52.380;7.018;2022-11-20T14:14:46;20.13;;;13.52;;
39098;SDS011;24844;52.380;7.018;2022-11-20T14:17:21;19.20;;;12.93;;
39098;SDS011;24844;52.380;7.018;2022-11-20T14:19:59;20.90;;;14.02;;
39098;SDS011;24844;52.380;7.018;2022-11-20T14:22:37;17.48;;;12.73;;
39098;SDS011;24844;52.380;7.018;2022-11-20T14:27:37;17.50;;;12.13;;
39098;SDS011;24844;52.380;7.018;2022-11-20T14:30:05;22.02;;;13.13;;
39098;SDS011;24844;52.380;7.018;2022-11-20T14:32:43;18.38;;;12.05;;
39098;SDS011;24844;52.380;7.018;2022-11-20T14:35:13;19.10;;;13.65;;
39098;SDS011;24844;52.380;7.018;2022-11-20T14:37:44;20.92;;;13.85;;
39098;SDS011;24844;52.380;7.018;2022-11-20T14:40:30;22.23;;;14.50;;
39098;SDS011;24844;52.380;7.018;2022-11-20T14:43:00;21.02;;;14.35;;
39098;SDS011;24844;52.380;7.018;2022-11-20T14:45:25;26.52;;;14.73;;
39098;SDS011;24844;52.380;7.018;2022-11-20T14:47:52;21.80;;;14.02;;
39098;SDS011;24844;52.380;7.018;2022-11-20T14:50:22;23.25;;;14.68;;
39098;SDS011;24844;52.380;7.018;2022-11-20T14:52:53;24.38;;;15.63;;
39098;SDS011;24844;52.380;7.018;2022-11-20T14:57:57;25.30;;;15.27;;
39098;SDS011;24844;52.380;7.018;2022-11-20T15:00:26;24.00;;;13.88;;
39098;SDS011;24844;52.380;7.018;2022-11-20T15:02:53;23.23;;;14.77;;
39098;SDS011;24844;52.380;7.018;2022-11-20T15:05:19;29.38;;;17.33;;
39098;SDS011;24844;52.380;7.018;2022-11-20T15:07:48;26.27;;;15.48;;
39098;SDS011;24844;52.380;7.018;2022-11-20T15:12:53;23.95;;;15.48;;
39098;SDS011;24844;52.380;7.018;2022-11-20T15:18:13;26.48;;;16.95;;
39098;SDS011;24844;52.380;7.018;2022-11-20T15:23:14;25.17;;;15.77;;
39098;SDS011;24844;52.380;7.018;2022-11-20T15:25:43;24.13;;;15.55;;
39098;SDS011;24844;52.380;7.018;2022-11-20T15:28:16;23.42;;;15.68;;
39098;SDS011;24844;52.380;7.018;2022-11-20T15:30:47;24.60;;;16.15;;
39098;SDS011;24844;52.380;7.018;2022-11-20T15:33:14;24.75;;;15.32;;
39098;SDS011;24844;52.380;7.018;2022-11-20T15:35:40;23.40;;;14.57;;
39098;SDS011;24844;52.380;7.018;2022-11-20T15:38:05;25.77;;;14.93;;
39098;SDS011;24844;52.380;7.018;2022-11-20T15:40:31;22.85;;;15.43;;
39098;SDS011;24844;52.380;7.018;2022-11-20T15:42:56;24.77;;;15.05;;
39098;SDS011;24844;52.380;7.018;2022-11-20T15:45:28;26.13;;;16.08;;
39098;SDS011;24844;52.380;7.018;2022-11-20T15:47:58;23.40;;;15.10;;
39098;SDS011;24844;52.380;7.018;2022-11-20T15:50:25;26.73;;;18.77;;
39098;SDS011;24844;52.380;7.018;2022-11-20T15:52:55;28.45;;;18.15;;
39098;SDS011;24844;52.380;7.018;2022-11-20T15:55:20;28.25;;;17.83;;
39098;SDS011;24844;52.380;7.018;2022-11-20T15:57:46;31.02;;;18.35;;
39098;SDS011;24844;52.380;7.018;2022-11-20T16:00:11;34.08;;;21.38;;
39098;SDS011;24844;52.380;7.018;2022-11-20T16:02:37;36.83;;;21.75;;
39098;SDS011;24844;52.380;7.018;2022-11-20T16:05:03;38.80;;;24.42;;
39098;SDS011;24844;52.380;7.018;2022-11-20T16:07:29;32.10;;;20.98;;
39098;SDS011;24844;52.380;7.018;2022-11-20T16:09:54;40.45;;;24.25;;